Time;durP1;ratioP1;P1;durP2;ratioP2;P2;SDS_P1;SDS_P2;PMS_P1;PMS_P2;Temp;Humidity;BMP_temperature;BMP_pressure;BME280_temperature;BME280_humidity;BME280_pressure;Samples;Min_cycle;Max_cycle;Signal;HPM_P1;HPM_P2
2021/06/11 00:00:38;;;;;;;3.25;3.03;;;20.40;93.50;;;;;;5109592;28;20539;-39
2021/06/11 00:03:04;;;;;;;3.03;2.80;;;20.40;93.60;;;;;;5109868;28;20084;-38
2021/06/11 00:05:30;;;;;;;3.67;3.00;;;20.30;93.60;;;;;;5109933;28;20027;-40
2021/06/11 00:07:55;;;;;;;2.97;2.78;;;20.30;93.70;;;;;;5108956;28;20134;-41
2021/06/11 00:10:21;;;;;;;3.72;3.33;;;20.30;93.80;;;;;;5110094;28;20114;-41
2021/06/11 00:12:47;;;;;;;3.63;3.33;;;20.30;93.90;;;;;;5109609;28;20059;-37
2021/06/11 00:15:12;;;;;;;3.75;3.45;;;20.20;94.00;;;;;;5109773;28;20042;-38
2021/06/11 00:17:38;;;;;;;3.65;3.35;;;20.20;94.10;;;;;;5109516;28;20099;-40
2021/06/11 00:20:06;;;;;;;3.95;3.60;;;20.10;94.10;;;;;;5109101;28;20462;-38
2021/06/11 00:22:31;;;;;;;3.75;3.00;;;20.10;94.20;;;;;;5109107;28;20082;-39
2021/06/11 00:24:57;;;;;;;3.60;3.30;;;20.00;94.30;;;;;;5109146;28;20055;-41
2021/06/11 00:27:22;;;;;;;3.75;3.45;;;19.90;94.40;;;;;;5109131;28;20536;-39
2021/06/11 00:29:48;;;;;;;3.60;3.30;;;19.90;94.60;;;;;;5109632;28;20157;-38
2021/06/11 00:32:14;;;;;;;4.72;3.55;;;19.90;94.60;;;;;;5108827;28;20465;-40
2021/06/11 00:34:39;;;;;;;3.75;3.20;;;19.90;94.70;;;;;;5109101;28;20042;-37
2021/06/11 00:37:06;;;;;;;4.03;3.50;;;19.90;94.80;;;;;;5108779;28;20040;-39
2021/06/11 00:39:31;;;;;;;4.57;3.40;;;19.90;94.80;;;;;;5109631;28;20016;-39
2021/06/11 00:42:00;;;;;;;4.70;3.55;;;19.90;94.90;;;;;;5107867;28;20414;-46
2021/06/11 00:44:26;;;;;;;3.22;2.92;;;19.90;94.90;;;;;;5107222;28;20046;-39
2021/06/11 00:46:51;;;;;;;3.50;3.20;;;19.90;95.30;;;;;;5108913;27;20471;-39
2021/06/11 00:49:18;;;;;;;4.03;3.20;;;19.90;95.10;;;;;;5108662;28;20042;-39
2021/06/11 00:51:44;;;;;;;4.25;3.10;;;19.80;95.10;;;;;;5108984;28;20027;-39
2021/06/11 00:54:10;;;;;;;3.38;3.08;;;19.80;95.20;;;;;;5108814;28;20043;-39
2021/06/11 00:56:36;;;;;;;3.05;2.80;;;19.80;95.20;;;;;;5109352;28;20051;-42
2021/06/11 00:59:01;;;;;;;3.40;3.10;;;19.80;95.30;;;;;;5108243;28;20023;-39
2021/06/11 01:01:27;;;;;;;3.50;3.20;;;19.80;95.30;;;;;;5108924;28;20101;-40
2021/06/11 01:03:52;;;;;;;3.30;3.05;;;19.80;95.30;;;;;;5107973;28;20031;-38
2021/06/11 01:06:19;;;;;;;3.60;3.10;;;19.80;95.40;;;;;;5109305;28;20441;-39
2021/06/11 01:08:45;;;;;;;2.90;2.70;;;19.80;95.40;;;;;;5106918;28;20048;-39
2021/06/11 01:11:12;;;;;;;3.40;3.10;;;19.70;95.40;;;;;;5108152;28;20069;-40
2021/06/11 01:13:38;;;;;;;3.60;3.13;;;19.70;95.50;;;;;;5108793;28;20375;-40
2021/06/11 01:16:04;;;;;;;3.45;3.15;;;19.70;95.60;;;;;;5107413;28;20051;-39
2021/06/11 01:18:30;;;;;;;3.58;3.28;;;19.60;95.60;;;;;;5108704;28;20366;-37
2021/06/11 01:20:55;;;;;;;4.07;3.67;;;19.60;95.60;;;;;;5108080;28;20024;-39
2021/06/11 01:23:41;;;;;;;3.95;3.45;;;19.60;95.70;;;;;;5107466;28;20050;-39
2021/06/11 01:26:06;;;;;;;3.20;2.90;;;19.60;95.70;;;;;;5108305;28;20480;-41
2021/06/11 01:28:32;;;;;;;3.72;3.42;;;19.40;95.70;;;;;;5108522;28;20032;-38
2021/06/11 01:31:02;;;;;;;3.90;3.50;;;19.40;95.80;;;;;;5106394;28;20008;-42
2021/06/11 01:33:31;;;;;;;4.90;3.40;;;19.30;96.00;;;;;;5107986;28;20020;-41
2021/06/11 01:36:01;;;;;;;4.35;3.20;;;19.30;96.10;;;;;;5108161;28;20111;-40
2021/06/11 01:38:36;;;;;;;4.20;3.75;;;19.30;96.20;;;;;;5107976;28;20031;-39
2021/06/11 01:41:05;;;;;;;3.38;3.08;;;19.30;96.20;;;;;;5107592;28;20889;-40
2021/06/11 01:43:33;;;;;;;3.20;2.90;;;19.30;96.20;;;;;;5108160;28;20102;-37
2021/06/11 01:46:10;;;;;;;4.05;3.53;;;19.30;96.20;;;;;;5107030;28;20313;-40
2021/06/11 01:48:39;;;;;;;3.80;3.50;;;19.30;96.20;;;;;;5108051;28;20467;-43
2021/06/11 01:51:07;;;;;;;4.00;3.60;;;19.20;96.30;;;;;;5106465;28;20019;-41
2021/06/11 01:53:35;;;;;;;4.57;3.72;;;19.10;96.40;;;;;;5108423;28;20042;-42
2021/06/11 01:56:02;;;;;;;4.45;4.03;;;19.10;96.50;;;;;;5107185;28;20069;-42
2021/06/11 01:58:28;;;;;;;3.90;3.60;;;19.10;96.60;;;;;;5107030;28;20031;-38
2021/06/11 02:00:54;;;;;;;4.22;3.83;;;19.00;96.70;;;;;;5107514;28;20051;-38
2021/06/11 02:03:22;;;;;;;4.40;4.00;;;19.10;96.70;;;;;;5087444;28;20020;-38
2021/06/11 02:05:49;;;;;;;4.70;3.97;;;19.10;96.80;;;;;;5101383;28;20127;-40
2021/06/11 02:08:15;;;;;;;4.60;4.20;;;19.10;96.80;;;;;;5107817;28;20135;-40
2021/06/11 02:10:41;;;;;;;4.63;4.22;;;19.10;96.80;;;;;;5106620;28;20312;-40
2021/06/11 02:13:08;;;;;;;4.85;4.45;;;19.10;96.90;;;;;;5106899;28;20114;-39
2021/06/11 02:15:34;;;;;;;5.32;4.57;;;19.10;96.90;;;;;;5107273;28;20683;-40
2021/06/11 02:18:00;;;;;;;8.60;4.93;;;19.00;97.00;;;;;;5106957;28;20119;-39
2021/06/11 02:20:26;;;;;;;5.18;4.65;;;18.90;97.00;;;;;;5107037;28;20366;-42
2021/06/11 02:22:52;;;;;;;7.00;5.32;;;18.80;97.20;;;;;;5106698;28;20065;-38
2021/06/11 02:25:24;;;;;;;6.20;5.60;;;18.70;97.30;;;;;;5107371;28;20451;-42
2021/06/11 02:27:49;;;;;;;6.45;5.85;;;18.60;97.50;;;;;;5106814;28;20036;-39
2021/06/11 02:30:17;;;;;;;6.68;5.90;;;18.60;97.50;;;;;;5106876;28;20087;-33
2021/06/11 02:32:44;;;;;;;7.30;6.70;;;18.60;97.60;;;;;;5106988;28;20339;-40
2021/06/11 02:35:15;;;;;;;6.97;6.28;;;18.60;97.60;;;;;;5106282;28;20031;-39
2021/06/11 02:37:41;;;;;;;8.32;7.45;;;18.60;97.60;;;;;;5106956;28;20072;-40
2021/06/11 02:40:08;;;;;;;8.18;7.43;;;18.50;97.70;;;;;;5106830;28;20102;-40
2021/06/11 02:42:34;;;;;;;9.25;7.97;;;18.50;97.80;;;;;;5106869;28;20028;-40
2021/06/11 02:45:04;;;;;;;10.68;8.88;;;18.50;97.90;;;;;;5106821;28;20593;-43
2021/06/11 02:47:32;;;;;;;10.90;9.35;;;18.50;98.00;;;;;;5106786;28;20051;-41
2021/06/11 02:50:01;;;;;;;13.88;9.27;;;18.50;98.00;;;;;;5106738;28;20072;-39
2021/06/11 02:52:29;;;;;;;11.63;9.45;;;18.50;98.00;;;;;;5107140;28;20139;-40
2021/06/11 02:54:58;;;;;;;10.18;9.18;;;18.50;98.10;;;;;;5106532;28;20051;-38
2021/06/11 02:57:32;;;;;;;10.43;8.45;;;18.40;98.20;;;;;;5106867;28;20111;-39
2021/06/11 03:00:06;;;;;;;10.88;8.35;;;18.50;98.20;;;;;;5106440;28;20141;-40
2021/06/11 03:02:35;;;;;;;8.98;8.10;;;18.50;98.30;;;;;;5106652;28;20104;-39
2021/06/11 03:05:02;;;;;;;10.05;9.02;;;18.40;98.30;;;;;;5106418;28;20027;-40
2021/06/11 03:07:33;;;;;;;11.88;8.95;;;18.40;98.30;;;;;;5106475;28;20335;-40
2021/06/11 03:10:02;;;;;;;9.70;8.73;;;18.40;98.40;;;;;;5105933;28;20451;-39
2021/06/11 03:12:30;;;;;;;9.57;8.57;;;18.40;98.40;;;;;;5106248;28;20061;-38
2021/06/11 03:14:58;;;;;;;10.30;9.00;;;18.40;98.50;;;;;;5106322;28;20106;-40
2021/06/11 03:17:42;;;;;;;9.93;8.77;;;18.50;98.50;;;;;;5106282;28;20011;-40
2021/06/11 03:20:13;;;;;;;10.20;9.05;;;18.40;98.50;;;;;;5106495;28;20016;-40
2021/06/11 03:22:48;;;;;;;10.38;8.68;;;18.50;98.50;;;;;;5105489;28;20490;-39
2021/06/11 03:25:22;;;;;;;10.52;9.52;;;18.40;98.50;;;;;;5106280;28;20085;-40
2021/06/11 03:27:55;;;;;;;10.82;9.65;;;18.40;98.50;;;;;;5106265;28;20115;-39
2021/06/11 03:30:25;;;;;;;10.73;9.45;;;18.30;98.60;;;;;;5106386;28;20579;-40
2021/06/11 03:32:55;;;;;;;10.18;8.93;;;18.30;98.60;;;;;;5106407;28;20020;-38
2021/06/11 03:35:28;;;;;;;11.95;9.73;;;18.30;98.70;;;;;;5106445;28;20031;-40
2021/06/11 03:37:56;;;;;;;9.68;8.30;;;18.30;98.70;;;;;;5105745;28;20478;-43
2021/06/11 03:40:28;;;;;;;10.98;9.27;;;18.30;98.70;;;;;;5106820;28;20024;-40
2021/06/11 03:42:54;;;;;;;10.33;9.27;;;18.30;98.70;;;;;;5106290;28;20031;-40
2021/06/11 03:45:21;;;;;;;12.15;9.38;;;18.30;98.80;;;;;;5106261;28;20353;-38
2021/06/11 03:47:48;;;;;;;10.15;9.15;;;18.20;98.80;;;;;;5105916;28;20065;-40
2021/06/11 03:50:22;;;;;;;11.88;9.63;;;18.30;98.90;;;;;;5106284;28;20128;-39
2021/06/11 03:52:49;;;;;;;11.32;9.32;;;18.20;98.90;;;;;;5107106;28;20480;-40
2021/06/11 03:55:21;;;;;;;10.32;9.35;;;18.20;98.90;;;;;;5110050;28;20428;-40
2021/06/11 03:58:11;;;;;;;11.85;10.60;;;18.20;99.00;;;;;;5109583;28;20425;-41
2021/06/11 04:00:37;;;;;;;11.55;10.38;;;18.10;99.10;;;;;;5098028;28;20028;-39
2021/06/11 04:03:04;;;;;;;11.25;10.15;;;18.10;99.10;;;;;;5109584;27;20546;-38
2021/06/11 04:05:30;;;;;;;11.48;10.38;;;18.00;99.20;;;;;;5108690;28;20439;-39
2021/06/11 04:07:59;;;;;;;11.80;10.43;;;18.00;99.30;;;;;;5109768;28;20031;-40
2021/06/11 04:10:35;;;;;;;12.75;10.80;;;18.00;99.40;;;;;;5109467;28;20090;-40
2021/06/11 04:13:07;;;;;;;12.50;11.30;;;18.00;99.40;;;;;;5108597;28;20102;-40
2021/06/11 04:15:35;;;;;;;11.20;9.95;;;17.90;99.50;;;;;;5109646;28;20069;-39
2021/06/11 04:18:09;;;;;;;11.85;9.93;;;17.90;99.50;;;;;;5109776;28;20111;-39
2021/06/11 04:20:36;;;;;;;11.82;10.73;;;17.90;99.80;;;;;;5108966;28;20077;-39
2021/06/11 04:23:05;;;;;;;10.00;9.00;;;17.90;99.70;;;;;;5109450;28;20043;-40
2021/06/11 04:25:33;;;;;;;10.95;9.80;;;17.90;99.60;;;;;;5109287;28;20352;-39
2021/06/11 04:28:01;;;;;;;11.75;10.60;;;18.00;99.60;;;;;;5108929;28;20049;-39
2021/06/11 04:30:27;;;;;;;11.70;10.50;;;18.00;99.60;;;;;;5109325;28;20035;-41
2021/06/11 04:32:53;;;;;;;11.32;10.15;;;18.10;99.70;;;;;;5109145;28;20327;-40
2021/06/11 04:35:27;;;;;;;11.43;10.23;;;18.10;99.60;;;;;;5109018;28;20024;-39
2021/06/11 04:37:55;;;;;;;11.82;10.52;;;18.10;99.60;;;;;;5109012;28;20036;-39
2021/06/11 04:40:21;;;;;;;12.93;10.32;;;18.10;99.60;;;;;;5108392;28;20479;-39
2021/06/11 04:42:49;;;;;;;11.38;10.15;;;18.10;99.70;;;;;;5109028;28;20023;-40
2021/06/11 04:45:15;;;;;;;11.15;10.05;;;18.00;99.70;;;;;;5108609;28;20011;-40
2021/06/11 04:47:41;;;;;;;12.20;11.00;;;18.00;99.70;;;;;;5108449;28;20096;-40
2021/06/11 04:50:07;;;;;;;11.23;10.00;;;18.00;99.70;;;;;;5108698;28;20023;-40
2021/06/11 04:52:32;;;;;;;9.75;8.80;;;18.00;99.70;;;;;;5109396;28;20104;-39
2021/06/11 04:54:58;;;;;;;13.00;11.60;;;18.00;99.90;;;;;;5108286;28;20020;-40
2021/06/11 04:57:23;;;;;;;14.23;11.05;;;18.00;99.80;;;;;;5108928;28;20514;-40
2021/06/11 04:59:49;;;;;;;11.13;10.00;;;18.00;99.90;;;;;;5108780;28;20119;-37
2021/06/11 05:02:14;;;;;;;12.13;10.90;;;18.00;99.90;;;;;;5107975;28;20051;-40
2021/06/11 05:04:40;;;;;;;12.02;10.80;;;18.00;99.90;;;;;;5107605;28;20073;-39
2021/06/11 05:07:05;;;;;;;11.75;10.45;;;18.10;99.90;;;;;;5108330;28;20035;-41
2021/06/11 05:09:31;;;;;;;12.00;10.75;;;18.10;99.90;;;;;;5108547;28;20039;-39
2021/06/11 05:11:57;;;;;;;13.50;11.27;;;18.20;99.90;;;;;;5108601;28;20490;-39
2021/06/11 05:14:22;;;;;;;15.15;12.82;;;18.20;99.90;;;;;;5108547;28;20028;-41
2021/06/11 05:16:48;;;;;;;16.63;13.07;;;18.20;99.90;;;;;;5108278;28;20033;-40
2021/06/11 05:19:13;;;;;;;12.38;11.13;;;18.30;99.90;;;;;;5109132;28;20564;-39
2021/06/11 05:21:39;;;;;;;13.77;12.02;;;18.30;99.90;;;;;;5108377;28;20119;-39
2021/06/11 05:24:06;;;;;;;10.13;8.65;;;18.30;99.90;;;;;;5107861;28;20910;-41
2021/06/11 05:26:31;;;;;;;12.55;11.30;;;18.40;99.90;;;;;;5108665;28;20023;-41
2021/06/11 05:28:57;;;;;;;12.85;11.40;;;18.50;99.90;;;;;;5107306;28;20386;-44
2021/06/11 05:31:22;;;;;;;13.35;11.95;;;18.50;99.90;;;;;;5108143;28;20026;-39
2021/06/11 05:33:49;;;;;;;12.23;10.93;;;18.50;99.90;;;;;;5108850;28;20046;-39
2021/06/11 05:36:15;;;;;;;14.63;11.60;;;18.50;99.90;;;;;;5107841;28;20019;-43
2021/06/11 05:38:40;;;;;;;12.27;10.98;;;18.60;99.90;;;;;;5108283;28;20018;-41
2021/06/11 05:41:15;;;;;;;11.65;10.38;;;18.60;99.90;;;;;;5108106;28;20030;-39
2021/06/11 05:43:44;;;;;;;13.82;10.82;;;18.70;99.90;;;;;;5107219;28;20016;-40
2021/06/11 05:46:11;;;;;;;14.27;12.00;;;18.60;99.90;;;;;;5108292;28;20134;-40
2021/06/11 05:48:39;;;;;;;13.40;12.00;;;18.70;99.90;;;;;;5107782;28;20077;-39
2021/06/11 05:51:07;;;;;;;13.50;12.10;;;18.70;99.90;;;;;;5107765;28;20034;-39
2021/06/11 05:53:37;;;;;;;14.25;12.38;;;18.70;99.90;;;;;;5107875;28;20463;-39
2021/06/11 05:56:04;;;;;;;14.43;11.88;;;18.70;99.90;;;;;;5105749;28;20028;-39
2021/06/11 05:58:29;;;;;;;14.73;12.40;;;18.70;99.90;;;;;;5107129;28;20110;-38
2021/06/11 06:00:55;;;;;;;12.80;10.68;;;18.70;99.90;;;;;;5107545;28;20387;-40
2021/06/11 06:03:23;;;;;;;13.13;10.43;;;18.70;99.90;;;;;;5108476;27;20492;-39
2021/06/11 06:05:49;;;;;;;12.60;10.15;;;18.80;99.90;;;;;;5103879;28;20051;-39
2021/06/11 06:08:15;;;;;;;10.25;9.13;;;18.80;99.90;;;;;;5106746;28;20059;-40
2021/06/11 06:10:41;;;;;;;10.15;8.52;;;18.90;99.90;;;;;;5106355;28;20016;-40
2021/06/11 06:13:10;;;;;;;12.27;10.25;;;18.90;99.90;;;;;;5106010;28;20112;-39
2021/06/11 06:15:35;;;;;;;10.35;9.25;;;18.90;99.90;;;;;;5105986;28;20027;-40
2021/06/11 06:18:01;;;;;;;13.57;9.10;;;19.00;99.90;;;;;;5105854;28;20031;-40
2021/06/11 06:20:27;;;;;;;10.90;8.75;;;19.00;99.90;;;;;;5106387;28;20073;-40
2021/06/11 06:22:53;;;;;;;12.13;9.30;;;19.10;99.90;;;;;;5105541;28;20494;-39
2021/06/11 06:25:19;;;;;;;10.27;9.25;;;19.10;99.90;;;;;;5109255;27;20016;-41
2021/06/11 06:27:45;;;;;;;13.57;11.05;;;19.20;99.90;;;;;;5107047;28;20422;-38
2021/06/11 06:30:13;;;;;;;11.98;10.70;;;19.20;99.90;;;;;;5106377;28;20465;-39
2021/06/11 06:32:39;;;;;;;13.10;11.70;;;19.20;99.90;;;;;;5106784;28;20036;-42
2021/06/11 06:35:06;;;;;;;13.88;9.00;;;19.30;99.90;;;;;;5105241;27;20023;-39
2021/06/11 06:37:33;;;;;;;12.05;10.52;;;19.30;99.90;;;;;;5107546;28;20076;-43
2021/06/11 06:40:01;;;;;;;12.07;9.55;;;19.40;99.90;;;;;;5105822;28;20024;-39
2021/06/11 06:42:30;;;;;;;12.05;10.32;;;19.40;99.90;;;;;;5107329;28;20028;-40
2021/06/11 06:44:56;;;;;;;10.75;9.20;;;19.40;99.90;;;;;;5106392;28;20053;-44
2021/06/11 06:47:21;;;;;;;11.10;8.88;;;19.50;99.90;;;;;;5106797;28;20040;-40
2021/06/11 06:49:47;;;;;;;13.77;10.68;;;19.50;99.90;;;;;;5107055;28;20092;-37
2021/06/11 06:52:14;;;;;;;11.77;9.75;;;19.60;99.90;;;;;;5106379;28;20026;-38
2021/06/11 06:54:42;;;;;;;12.70;10.40;;;19.60;99.90;;;;;;5106019;28;20324;-40
2021/06/11 06:57:08;;;;;;;14.07;9.90;;;19.60;99.90;;;;;;5107204;28;20025;-40
2021/06/11 06:59:40;;;;;;;11.43;10.15;;;19.70;99.90;;;;;;5106936;28;20030;-43
2021/06/11 07:02:06;;;;;;;11.07;9.45;;;19.70;99.90;;;;;;5096400;28;20020;-40
2021/06/11 07:04:32;;;;;;;13.80;10.23;;;19.80;99.90;;;;;;5106627;28;20142;-40
2021/06/11 07:06:58;;;;;;;10.95;9.07;;;19.80;99.90;;;;;;5106147;28;20156;-41
2021/06/11 07:09:24;;;;;;;13.63;10.32;;;19.80;99.90;;;;;;5106673;28;20081;-40
2021/06/11 07:11:52;;;;;;;12.95;9.98;;;19.80;99.90;;;;;;5106630;28;20015;-37
2021/06/11 07:14:19;;;;;;;23.63;13.75;;;19.80;99.90;;;;;;5106375;28;20027;-41
2021/06/11 07:16:48;;;;;;;18.75;13.90;;;19.90;99.90;;;;;;5106343;28;20412;-41
2021/06/11 07:19:17;;;;;;;18.50;14.20;;;19.90;99.90;;;;;;5106637;28;20053;-40
2021/06/11 07:21:43;;;;;;;16.52;14.25;;;20.00;99.90;;;;;;5105732;28;20225;-38
2021/06/11 07:24:09;;;;;;;16.80;13.75;;;20.10;99.90;;;;;;5106609;28;20640;-39
2021/06/11 07:26:36;;;;;;;14.77;11.50;;;20.10;99.90;;;;;;5106824;28;20098;-39
2021/06/11 07:29:02;;;;;;;16.85;12.88;;;20.20;99.90;;;;;;5108481;28;20470;-39
2021/06/11 07:31:27;;;;;;;16.48;13.55;;;20.20;99.80;;;;;;5110316;28;20054;-38
2021/06/11 07:33:53;;;;;;;17.40;13.30;;;20.20;99.70;;;;;;5110282;28;20020;-44
2021/06/11 07:36:22;;;;;;;17.15;12.73;;;20.30;99.70;;;;;;5110090;28;20032;-40
2021/06/11 07:38:47;;;;;;;16.02;12.73;;;20.30;99.60;;;;;;5109824;28;20733;-40
2021/06/11 07:41:13;;;;;;;18.00;12.90;;;20.20;99.60;;;;;;5110455;28;20313;-40
2021/06/11 07:43:38;;;;;;;18.80;14.45;;;20.30;99.60;;;;;;5110389;28;20027;-44
2021/06/11 07:46:04;;;;;;;15.90;12.82;;;20.20;99.50;;;;;;5109548;28;20055;-39
2021/06/11 07:48:32;;;;;;;17.00;13.27;;;20.20;99.50;;;;;;5110482;28;20027;-40
2021/06/11 07:50:58;;;;;;;21.08;12.10;;;20.20;99.50;;;;;;5108998;28;20024;-40
2021/06/11 07:53:26;;;;;;;17.25;13.23;;;20.20;99.60;;;;;;5110233;28;20052;-39
2021/06/11 07:55:52;;;;;;;14.10;11.32;;;20.20;99.50;;;;;;5110278;28;20031;-40
2021/06/11 07:58:18;;;;;;;12.73;10.60;;;20.30;99.50;;;;;;5109625;28;20050;-40
2021/06/11 08:00:44;;;;;;;14.02;11.27;;;20.30;99.40;;;;;;5110325;28;20034;-37
2021/06/11 08:03:15;;;;;;;12.30;10.25;;;20.30;99.40;;;;;;5109886;28;20036;-38
2021/06/11 08:05:41;;;;;;;13.15;10.93;;;20.40;99.40;;;;;;5109500;28;20016;-40
2021/06/11 08:08:07;;;;;;;12.10;9.23;;;20.40;99.40;;;;;;5109602;28;20061;-39
2021/06/11 08:10:33;;;;;;;10.13;8.82;;;20.40;99.40;;;;;;5109999;28;20042;-40
2021/06/11 08:12:59;;;;;;;10.30;9.20;;;20.40;99.30;;;;;;5109276;28;20077;-40
2021/06/11 08:15:27;;;;;;;10.32;9.23;;;20.40;99.20;;;;;;5110230;28;20032;-39
2021/06/11 08:17:52;;;;;;;9.52;8.13;;;20.50;99.20;;;;;;5108848;28;20081;-40
2021/06/11 08:20:18;;;;;;;13.23;10.57;;;20.50;99.10;;;;;;5109680;28;20759;-41
2021/06/11 08:22:44;;;;;;;12.48;10.20;;;20.60;99.00;;;;;;5109469;28;20030;-40
2021/06/11 08:25:10;;;;;;;12.38;10.18;;;20.60;98.90;;;;;;5107093;28;20049;-38
2021/06/11 08:27:37;;;;;;;12.65;10.93;;;20.70;98.90;;;;;;5109365;28;20200;-39
2021/06/11 08:30:05;;;;;;;11.45;10.15;;;20.70;98.90;;;;;;5109430;28;20028;-45
2021/06/11 08:32:30;;;;;;;11.65;10.30;;;20.70;98.80;;;;;;5109068;28;20026;-41
2021/06/11 08:34:56;;;;;;;11.85;9.63;;;20.80;98.80;;;;;;5108401;28;20015;-41
2021/06/11 08:37:23;;;;;;;12.57;10.13;;;20.80;98.80;;;;;;5109810;28;20557;-38
2021/06/11 08:39:53;;;;;;;10.00;8.50;;;20.90;98.70;;;;;;5104445;28;20030;-40
2021/06/11 08:42:32;;;;;;;10.30;7.72;;;20.90;98.60;;;;;;5109132;28;20035;-40
2021/06/11 08:45:00;;;;;;;12.27;10.88;;;21.00;98.50;;;;;;5109122;28;20020;-43
2021/06/11 08:47:28;;;;;;;10.45;8.95;;;21.10;98.40;;;;;;5108784;28;20035;-45
2021/06/11 08:49:56;;;;;;;10.63;9.30;;;21.10;98.30;;;;;;5108678;28;20039;-40
2021/06/11 08:52:21;;;;;;;13.48;10.85;;;21.20;98.20;;;;;;5109611;28;20016;-40
2021/06/11 08:54:51;;;;;;;13.88;11.02;;;21.20;98.10;;;;;;5108468;28;20510;-41
2021/06/11 08:57:17;;;;;;;17.13;11.50;;;21.30;98.20;;;;;;5108749;28;20020;-36
2021/06/11 08:59:45;;;;;;;12.52;9.60;;;21.40;98.10;;;;;;5108770;28;20019;-38
2021/06/11 09:02:11;;;;;;;10.10;9.02;;;21.40;98.00;;;;;;5109005;28;20051;-40
2021/06/11 09:04:51;;;;;;;12.48;9.57;;;21.50;97.90;;;;;;5108877;28;20058;-39
2021/06/11 09:07:31;;;;;;;13.25;10.60;;;21.50;97.80;;;;;;5108183;28;20910;-39
2021/06/11 09:10:00;;;;;;;11.20;9.60;;;21.60;97.80;;;;;;5108420;28;20111;-40
2021/06/11 09:12:37;;;;;;;10.75;8.75;;;21.60;97.70;;;;;;5108689;28;20016;-39
2021/06/11 09:15:11;;;;;;;13.70;11.15;;;21.70;97.70;;;;;;5106624;28;20031;-38
2021/06/11 09:17:50;;;;;;;14.45;12.02;;;21.70;97.60;;;;;;5106836;28;20129;-47
2021/06/11 09:20:41;;;;;;;11.75;10.20;;;21.80;97.60;;;;;;5105784;28;20020;-39
2021/06/11 09:23:09;;;;;;;13.95;11.40;;;21.90;97.40;;;;;;5106785;28;20063;-40
2021/06/11 09:25:38;;;;;;;15.10;12.15;;;22.00;97.40;;;;;;5105550;28;20477;-40
2021/06/11 09:28:06;;;;;;;11.85;10.18;;;22.10;97.30;;;;;;5107680;28;20073;-38
2021/06/11 09:30:55;;;;;;;12.75;10.70;;;22.20;97.10;;;;;;5108489;28;20059;-39
2021/06/11 09:33:31;;;;;;;12.13;10.68;;;22.40;96.90;;;;;;5088142;28;20028;-38
2021/06/11 09:36:00;;;;;;;13.20;11.75;;;22.60;96.60;;;;;;5103163;28;20046;-40
2021/06/11 09:38:33;;;;;;;16.98;10.88;;;22.80;96.40;;;;;;5108317;28;20427;-43
2021/06/11 09:40:59;;;;;;;10.20;9.10;;;22.90;96.20;;;;;;5107402;28;20903;-39
2021/06/11 09:43:30;;;;;;;11.80;9.55;;;23.10;96.10;;;;;;5108129;28;20051;-40
2021/06/11 09:46:11;;;;;;;14.27;10.98;;;23.30;95.70;;;;;;5107988;28;20030;-41
2021/06/11 09:48:42;;;;;;;11.43;10.23;;;23.50;95.40;;;;;;5108085;28;20038;-41
2021/06/11 09:51:18;;;;;;;11.15;8.95;;;23.60;95.30;;;;;;5107228;28;20028;-40
2021/06/11 09:53:44;;;;;;;11.00;8.60;;;23.60;95.30;;;;;;5108151;28;20123;-40
2021/06/11 09:56:30;;;;;;;10.73;9.63;;;23.60;95.30;;;;;;5107456;28;20046;-42
2021/06/11 09:58:59;;;;;;;11.80;10.00;;;23.50;95.20;;;;;;5107283;28;20094;-37
2021/06/11 10:01:27;;;;;;;11.07;9.88;;;23.40;95.20;;;;;;5108513;28;20024;-40
2021/06/11 10:03:58;;;;;;;10.68;9.57;;;23.50;95.20;;;;;;5107364;28;20103;-40
2021/06/11 10:06:24;;;;;;;12.70;10.05;;;23.40;95.20;;;;;;5107417;28;20404;-40
2021/06/11 10:08:51;;;;;;;11.00;8.95;;;23.40;95.10;;;;;;5108159;28;20109;-41
2021/06/11 10:11:25;;;;;;;10.32;9.23;;;23.40;95.10;;;;;;5107163;28;20094;-42
2021/06/11 10:13:52;;;;;;;11.85;10.65;;;23.50;95.10;;;;;;5107412;28;20054;-38
2021/06/11 10:16:18;;;;;;;12.15;10.10;;;23.50;94.80;;;;;;5107741;27;20039;-40
2021/06/11 10:18:45;;;;;;;10.73;8.77;;;23.60;95.20;;;;;;5106552;28;20031;-39
2021/06/11 10:21:11;;;;;;;12.27;10.23;;;23.60;94.90;;;;;;5107817;28;20112;-39
2021/06/11 10:23:38;;;;;;;9.57;8.57;;;23.70;94.90;;;;;;5108021;28;20133;-40
2021/06/11 10:26:05;;;;;;;10.45;9.02;;;23.70;94.70;;;;;;5106512;28;20478;-43
2021/06/11 10:28:36;;;;;;;10.88;9.23;;;23.80;94.50;;;;;;5107196;28;20055;-39
2021/06/11 10:31:05;;;;;;;11.25;10.05;;;23.90;94.50;;;;;;5106957;28;20433;-40
2021/06/11 10:33:51;;;;;;;11.48;9.55;;;24.00;94.40;;;;;;5106164;28;20442;-39
2021/06/11 10:36:26;;;;;;;8.70;7.53;;;24.10;94.20;;;;;;5088396;28;20043;-40
2021/06/11 10:38:57;;;;;;;10.38;9.15;;;24.20;94.00;;;;;;5103604;28;20038;-40
2021/06/11 10:41:24;;;;;;;10.20;8.15;;;24.30;93.70;;;;;;5107800;28;20046;-40
2021/06/11 10:43:50;;;;;;;9.30;7.60;;;24.40;93.50;;;;;;5106706;28;20028;-39
2021/06/11 10:46:30;;;;;;;9.02;8.07;;;24.50;93.40;;;;;;5106863;28;20027;-40
2021/06/11 10:48:55;;;;;;;12.88;7.65;;;24.70;93.10;;;;;;5106596;28;20024;-39
2021/06/11 10:51:39;;;;;;;11.85;9.82;;;24.80;93.00;;;;;;5107700;28;20027;-39
2021/06/11 10:54:17;;;;;;;10.45;8.75;;;24.80;92.50;;;;;;5105903;28;20428;-40
2021/06/11 10:57:01;;;;;;;8.80;7.90;;;24.90;92.50;;;;;;5106599;28;20028;-40
2021/06/11 10:59:37;;;;;;;8.45;7.15;;;25.00;92.30;;;;;;5106460;28;20035;-41
2021/06/11 11:02:04;;;;;;;8.70;7.32;;;25.10;92.50;;;;;;5108016;28;20020;-40
2021/06/11 11:04:38;;;;;;;9.70;8.80;;;25.20;92.10;;;;;;5110439;28;20019;-41
2021/06/11 11:07:22;;;;;;;10.93;9.18;;;25.30;91.90;;;;;;5110317;27;20030;-39
2021/06/11 11:10:05;;;;;;;8.07;7.18;;;25.50;91.50;;;;;;5110964;28;20123;-40
2021/06/11 11:12:57;;;;;;;8.43;7.63;;;25.50;91.60;;;;;;5111420;28;20092;-39
2021/06/11 11:15:45;;;;;;;8.43;7.40;;;25.60;91.30;;;;;;5110743;28;20020;-40
2021/06/11 11:18:15;;;;;;;7.10;6.18;;;25.50;91.40;;;;;;5111707;27;20016;-39
2021/06/11 11:20:43;;;;;;;9.60;8.60;;;25.50;91.30;;;;;;5099537;28;20030;-39
2021/06/11 11:23:14;;;;;;;8.85;7.95;;;25.70;91.20;;;;;;5110806;28;20128;-39
2021/06/11 11:25:41;;;;;;;9.07;8.10;;;25.80;91.20;;;;;;5110457;28;20028;-41
2021/06/11 11:28:09;;;;;;;13.32;9.13;;;25.90;91.20;;;;;;5110144;28;20304;-41
2021/06/11 11:30:35;;;;;;;8.38;7.55;;;25.90;90.80;;;;;;5110679;28;20539;-39
2021/06/11 11:33:02;;;;;;;9.85;8.35;;;25.90;90.70;;;;;;5110105;28;20040;-40
2021/06/11 11:35:31;;;;;;;8.57;6.75;;;26.00;90.40;;;;;;5109851;28;20088;-39
2021/06/11 11:37:59;;;;;;;9.30;8.25;;;26.10;90.20;;;;;;5110458;28;20019;-38
2021/06/11 11:40:29;;;;;;;6.70;6.00;;;26.20;89.50;;;;;;5110259;28;20023;-40
2021/06/11 11:42:57;;;;;;;6.75;6.15;;;26.30;89.40;;;;;;5109949;28;20032;-39
2021/06/11 11:45:27;;;;;;;7.65;5.40;;;26.40;89.50;;;;;;5110713;28;20031;-40
2021/06/11 11:47:58;;;;;;;7.63;6.22;;;26.50;89.30;;;;;;5089878;28;20478;-40
2021/06/11 11:50:26;;;;;;;6.72;6.13;;;26.60;89.00;;;;;;5104741;28;20039;-40
2021/06/11 11:52:52;;;;;;;6.80;6.20;;;26.70;88.00;;;;;;5110085;28;20022;-40
2021/06/11 11:55:17;;;;;;;6.97;6.18;;;26.70;87.50;;;;;;5109477;28;20027;-44
2021/06/11 11:57:45;;;;;;;9.75;6.85;;;26.80;87.40;;;;;;5109640;28;20061;-42
2021/06/11 12:00:12;;;;;;;6.28;5.60;;;26.80;87.10;;;;;;5109587;28;20424;-39
2021/06/11 12:02:37;;;;;;;10.57;6.20;;;26.80;87.10;;;;;;5110416;28;20313;-39
2021/06/11 12:05:07;;;;;;;7.72;6.93;;;26.70;87.50;;;;;;5109352;28;20116;-40
2021/06/11 12:07:32;;;;;;;9.98;7.55;;;26.70;87.50;;;;;;5109869;28;20050;-39
2021/06/11 12:09:59;;;;;;;7.90;6.72;;;26.50;88.20;;;;;;5109114;28;20435;-39
2021/06/11 12:12:28;;;;;;;8.40;6.82;;;26.30;88.60;;;;;;5110558;28;20474;-40
2021/06/11 12:14:54;;;;;;;7.28;5.78;;;26.20;88.30;;;;;;5108866;28;20015;-41
2021/06/11 12:17:21;;;;;;;8.10;7.30;;;26.00;88.50;;;;;;5109352;28;20015;-40
2021/06/11 12:19:47;;;;;;;6.50;5.90;;;26.00;88.10;;;;;;5109438;28;20055;-39
2021/06/11 12:22:14;;;;;;;6.72;6.03;;;26.10;87.80;;;;;;5109240;28;20077;-41
2021/06/11 12:24:40;;;;;;;6.40;5.80;;;26.20;87.10;;;;;;5108769;28;20059;-41
2021/06/11 12:27:06;;;;;;;10.65;9.57;;;26.40;86.90;;;;;;5109594;28;20615;-41
2021/06/11 12:29:32;;;;;;;9.05;7.50;;;26.40;84.00;;;;;;5110041;28;20028;-41
2021/06/11 12:31:57;;;;;;;7.57;6.10;;;26.40;85.60;;;;;;5107972;28;20076;-41
2021/06/11 12:34:23;;;;;;;7.28;6.55;;;26.40;86.30;;;;;;5089954;28;20096;-41
2021/06/11 12:36:48;;;;;;;8.25;7.45;;;26.50;86.20;;;;;;5103536;28;20020;-39
2021/06/11 12:39:14;;;;;;;13.55;11.10;;;26.50;85.70;;;;;;5109151;28;20020;-41
2021/06/11 12:41:41;;;;;;;13.48;11.30;;;26.40;84.90;;;;;;5109332;28;20364;-40
2021/06/11 12:44:18;;;;;;;10.80;9.43;;;26.30;85.60;;;;;;5108718;28;20022;-40